Time;durP1;ratioP1;P1;durP2;ratioP2;P2;SDS_P1;SDS_P2;PMS_P1;PMS_P2;Temp;Humidity;BMP_temperature;BMP_pressure;BME280_temperature;BME280_humidity;BME280_pressure;Samples;Min_cycle;Max_cycle;Signal;HPM_P1;HPM_P2
2022/11/01 00:01:12;;;;;;;18.80;15.45;;;;;;;;;;5055295;28;20021;-74
2022/11/01 00:03:38;;;;;;;19.85;16.23;;;;;;;;;;5055330;28;20020;-71
2022/11/01 00:06:04;;;;;;;18.25;14.50;;;;;;;;;;5055161;28;20559;-71
2022/11/01 00:08:30;;;;;;;19.20;13.95;;;;;;;;;;5055566;28;20441;-71
2022/11/01 00:11:06;;;;;;;21.30;15.63;;;;;;;;;;5055111;28;20108;-72
2022/11/01 00:13:32;;;;;;;17.98;14.95;;;;;;;;;;5055351;28;20692;-71
2022/11/01 00:15:58;;;;;;;18.40;14.25;;;;;;;;;;5055021;28;20033;-71
2022/11/01 00:18:25;;;;;;;18.65;15.48;;;;;;;;;;5055100;28;20070;-71
2022/11/01 00:20:51;;;;;;;21.25;15.70;;;;;;;;;;5054893;28;20025;-71
2022/11/01 00:23:17;;;;;;;20.10;14.25;;;;;;;;;;5039809;28;20034;-71
2022/11/01 00:25:43;;;;;;;23.70;15.63;;;;;;;;;;5053841;28;20021;-71
2022/11/01 00:28:10;;;;;;;21.77;14.60;;;;;;;;;;5055048;28;20082;-71
2022/11/01 00:30:36;;;;;;;20.48;14.32;;;;;;;;;;5054765;28;20381;-71
2022/11/01 00:33:02;;;;;;;19.15;14.90;;;;;;;;;;5054824;28;20029;-71
2022/11/01 00:35:29;;;;;;;21.63;14.43;;;;;;;;;;5054426;28;20025;-71
2022/11/01 00:37:55;;;;;;;18.02;15.43;;;;;;;;;;5054890;28;20181;-71
2022/11/01 00:40:21;;;;;;;22.00;16.17;;;;;;;;;;5054811;28;20454;-71
2022/11/01 00:42:47;;;;;;;17.60;15.02;;;;;;;;;;5054356;28;20516;-71
2022/11/01 00:45:13;;;;;;;20.17;14.73;;;;;;;;;;5054507;28;20510;-71
2022/11/01 00:47:39;;;;;;;24.25;14.13;;;;;;;;;;5054255;28;20167;-71
2022/11/01 00:50:05;;;;;;;18.15;13.82;;;;;;;;;;5054648;28;20021;-71
2022/11/01 00:52:31;;;;;;;19.65;13.32;;;;;;;;;;5054094;28;20021;-71
2022/11/01 00:54:57;;;;;;;23.75;13.88;;;;;;;;;;5054469;28;20017;-72
2022/11/01 00:57:23;;;;;;;19.92;14.40;;;;;;;;;;5054454;28;20035;-71
2022/11/01 00:59:49;;;;;;;18.88;13.57;;;;;;;;;;5054659;28;20348;-71
2022/11/01 01:02:15;;;;;;;18.83;13.52;;;;;;;;;;5054167;28;20075;-71
2022/11/01 01:04:42;;;;;;;18.40;13.90;;;;;;;;;;5054287;28;20037;-71
2022/11/01 01:07:09;;;;;;;18.23;13.80;;;;;;;;;;5054038;28;20016;-71
2022/11/01 01:09:35;;;;;;;19.35;14.05;;;;;;;;;;5054288;28;20495;-71
2022/11/01 01:12:01;;;;;;;20.70;14.80;;;;;;;;;;5054049;28;20029;-72
2022/11/01 01:14:27;;;;;;;20.30;14.68;;;;;;;;;;5054288;28;20033;-70
2022/11/01 01:16:54;;;;;;;20.45;13.35;;;;;;;;;;5053783;28;20123;-70
2022/11/01 01:19:20;;;;;;;22.35;13.50;;;;;;;;;;5054135;28;20029;-71
2022/11/01 01:21:46;;;;;;;19.77;14.15;;;;;;;;;;5053554;28;20059;-71
2022/11/01 01:24:12;;;;;;;17.70;13.18;;;;;;;;;;5053451;28;20032;-70
2022/11/01 01:26:38;;;;;;;15.82;12.88;;;;;;;;;;5053570;28;20028;-71
2022/11/01 01:29:04;;;;;;;17.85;13.80;;;;;;;;;;5053982;28;20024;-70
2022/11/01 01:31:30;;;;;;;22.40;13.43;;;;;;;;;;5053578;28;20113;-71
2022/11/01 01:33:59;;;;;;;21.05;15.13;;;;;;;;;;5053714;28;20184;-71
2022/11/01 01:36:25;;;;;;;15.82;12.88;;;;;;;;;;5053314;28;20027;-71
2022/11/01 01:38:52;;;;;;;19.95;13.38;;;;;;;;;;5053710;28;20021;-71
2022/11/01 01:44:23;;;;;;;20.92;13.55;;;;;;;;;;5053245;28;20126;-71
2022/11/01 01:46:49;;;;;;;17.52;12.52;;;;;;;;;;5053308;28;20108;-71
2022/11/01 01:49:15;;;;;;;17.42;12.63;;;;;;;;;;5053161;28;20074;-71
2022/11/01 01:51:41;;;;;;;15.65;12.73;;;;;;;;;;5053175;28;20021;-71
2022/11/01 01:54:07;;;;;;;15.57;12.45;;;;;;;;;;5053325;28;20395;-72
2022/11/01 01:56:35;;;;;;;14.30;12.07;;;;;;;;;;5053054;28;20025;-71
2022/11/01 01:59:06;;;;;;;20.08;12.50;;;;;;;;;;5053100;28;20032;-71
2022/11/01 02:01:34;;;;;;;18.58;12.57;;;;;;;;;;5053121;28;20017;-71
2022/11/01 02:04:00;;;;;;;15.23;11.52;;;;;;;;;;5052916;28;20080;-71
2022/11/01 02:06:26;;;;;;;23.08;12.27;;;;;;;;;;5053154;28;20025;-71
2022/11/01 02:08:55;;;;;;;18.45;11.52;;;;;;;;;;5053271;28;20029;-71
2022/11/01 02:11:21;;;;;;;15.18;11.52;;;;;;;;;;5053111;28;20078;-71
2022/11/01 02:13:48;;;;;;;14.68;10.45;;;;;;;;;;5053139;28;20111;-71
2022/11/01 02:16:40;;;;;;;14.35;11.05;;;;;;;;;;5052995;28;20025;-71
2022/11/01 02:19:24;;;;;;;16.85;11.07;;;;;;;;;;4971791;28;20117;-71
2022/11/01 02:21:55;;;;;;;17.02;11.27;;;;;;;;;;4972234;28;20128;-71
2022/11/01 02:24:24;;;;;;;18.65;11.90;;;;;;;;;;4972075;28;20442;-71
2022/11/01 02:26:52;;;;;;;16.88;11.68;;;;;;;;;;4971952;28;20034;-71
2022/11/01 02:29:37;;;;;;;34.85;23.60;;;;;;;;;;4971954;28;20034;-71
2022/11/01 02:32:12;;;;;;;28.00;18.80;;;;;;;;;;4971953;28;20477;-71
2022/11/01 02:34:56;;;;;;;19.88;13.50;;;;;;;;;;4972018;28;20027;-71
2022/11/01 02:37:25;;;;;;;17.35;11.93;;;;;;;;;;4971618;28;20544;-71
2022/11/01 02:39:53;;;;;;;17.40;11.88;;;;;;;;;;4971992;28;20113;-71
2022/11/01 02:42:29;;;;;;;13.95;11.10;;;;;;;;;;4955190;28;20597;-71
2022/11/01 02:45:00;;;;;;;13.80;10.18;;;;;;;;;;4971986;28;20078;-72
2022/11/01 02:47:28;;;;;;;14.93;10.38;;;;;;;;;;4971541;28;20030;-71
2022/11/01 02:49:58;;;;;;;16.17;10.88;;;;;;;;;;4971761;28;20403;-72
2022/11/01 02:52:25;;;;;;;18.05;10.55;;;;;;;;;;4971800;28;20035;-71
2022/11/01 02:54:53;;;;;;;15.63;10.88;;;;;;;;;;4978268;28;20023;-72
2022/11/01 02:57:19;;;;;;;13.40;10.02;;;;;;;;;;5052210;28;20078;-71
2022/11/01 02:59:46;;;;;;;17.20;10.77;;;;;;;;;;5052385;28;20017;-71
2022/11/01 03:02:38;;;;;;;14.00;9.77;;;;;;;;;;5052398;28;20029;-71
2022/11/01 03:05:05;;;;;;;13.82;10.30;;;;;;;;;;5052287;28;20115;-71
2022/11/01 03:07:32;;;;;;;15.45;10.32;;;;;;;;;;5052231;28;20048;-71
2022/11/01 03:09:58;;;;;;;14.32;10.05;;;;;;;;;;5052404;28;20029;-71
2022/11/01 03:12:27;;;;;;;17.48;10.13;;;;;;;;;;5052374;28;20417;-71
2022/11/01 03:14:53;;;;;;;15.02;9.82;;;;;;;;;;5052306;28;20035;-71
2022/11/01 03:17:31;;;;;;;15.88;10.20;;;;;;;;;;5052504;28;20029;-71
2022/11/01 03:20:00;;;;;;;11.27;9.55;;;;;;;;;;5052204;28;20361;-71
2022/11/01 03:22:26;;;;;;;10.23;8.15;;;;;;;;;;5052292;28;20028;-72
2022/11/01 03:24:59;;;;;;;11.57;9.15;;;;;;;;;;5052176;28;20041;-71
2022/11/01 03:27:31;;;;;;;13.00;8.00;;;;;;;;;;5052218;28;20017;-70
2022/11/01 03:30:02;;;;;;;14.30;8.60;;;;;;;;;;5051909;28;20025;-71
2022/11/01 03:32:31;;;;;;;14.15;8.60;;;;;;;;;;5052063;28;20036;-71
2022/11/01 03:34:59;;;;;;;13.60;8.32;;;;;;;;;;5052119;28;20032;-71
2022/11/01 03:37:27;;;;;;;10.27;7.82;;;;;;;;;;5051967;28;20025;-71
2022/11/01 03:39:54;;;;;;;15.40;8.18;;;;;;;;;;5052019;28;20375;-71
2022/11/01 03:42:22;;;;;;;12.40;9.07;;;;;;;;;;5051795;28;20098;-71
2022/11/01 03:44:50;;;;;;;14.98;8.98;;;;;;;;;;5051670;28;20063;-71
2022/11/01 03:47:16;;;;;;;10.43;8.07;;;;;;;;;;5051949;28;20028;-71
2022/11/01 03:49:42;;;;;;;11.32;8.38;;;;;;;;;;5055319;28;20016;-71
2022/11/01 03:52:08;;;;;;;11.55;8.07;;;;;;;;;;5055813;28;20021;-71
2022/11/01 03:54:34;;;;;;;10.98;7.25;;;;;;;;;;5055362;28;20534;-71
2022/11/01 03:57:00;;;;;;;14.43;8.98;;;;;;;;;;5055774;28;20025;-72
2022/11/01 03:59:26;;;;;;;12.25;7.95;;;;;;;;;;5055325;28;20448;-71
2022/11/01 04:01:53;;;;;;;10.48;7.85;;;;;;;;;;5055453;28;20056;-71
2022/11/01 04:04:19;;;;;;;11.15;7.05;;;;;;;;;;5055431;28;20120;-71
2022/11/01 04:06:45;;;;;;;12.27;8.70;;;;;;;;;;5055378;28;20025;-73
2022/11/01 04:09:11;;;;;;;11.40;7.97;;;;;;;;;;5055307;28;20117;-71
2022/11/01 04:11:37;;;;;;;14.10;8.32;;;;;;;;;;5055329;28;20383;-71
2022/11/01 04:22:16;;;;;;;9.80;8.68;;;;;;;;;;5055135;28;20071;-71
2022/11/01 04:24:42;;;;;;;12.32;8.50;;;;;;;;;;5054970;28;20033;-71
2022/11/01 04:27:08;;;;;;;10.48;7.15;;;;;;;;;;5054750;28;20032;-71
2022/11/01 04:29:34;;;;;;;8.95;6.88;;;;;;;;;;5055057;28;20072;-71
2022/11/01 04:32:02;;;;;;;11.23;7.60;;;;;;;;;;5054778;28;20027;-71
2022/11/01 04:34:43;;;;;;;10.75;7.25;;;;;;;;;;5054794;28;20470;-71
2022/11/01 04:37:09;;;;;;;16.25;8.23;;;;;;;;;;5054524;28;20472;-71
2022/11/01 04:39:35;;;;;;;12.43;7.40;;;;;;;;;;5054956;28;20100;-71
2022/11/01 04:42:01;;;;;;;15.30;8.05;;;;;;;;;;5054476;28;20033;-71
2022/11/01 04:44:27;;;;;;;14.40;8.20;;;;;;;;;;5054562;28;20112;-71
2022/11/01 04:46:54;;;;;;;10.75;7.47;;;;;;;;;;5054626;28;20025;-71
2022/11/01 04:49:20;;;;;;;11.10;7.85;;;;;;;;;;5054539;28;20045;-71
2022/11/01 04:51:46;;;;;;;14.07;8.45;;;;;;;;;;5054243;28;20017;-71
2022/11/01 04:54:12;;;;;;;17.20;8.52;;;;;;;;;;5054646;28;20052;-71
2022/11/01 04:56:38;;;;;;;11.70;8.27;;;;;;;;;;5054169;28;20055;-71
2022/11/01 04:59:04;;;;;;;12.52;8.15;;;;;;;;;;5053683;28;20025;-71
2022/11/01 05:01:30;;;;;;;12.20;7.70;;;;;;;;;;5053630;28;20100;-71
2022/11/01 05:03:56;;;;;;;14.10;7.93;;;;;;;;;;5054355;28;20125;-71
2022/11/01 05:06:22;;;;;;;18.75;9.23;;;;;;;;;;5054146;28;20028;-71
2022/11/01 05:08:48;;;;;;;22.80;14.13;;;;;;;;;;5053980;28;20025;-71
2022/11/01 05:11:14;;;;;;;31.50;17.30;;;;;;;;;;5054111;28;20053;-71
2022/11/01 05:13:40;;;;;;;17.58;12.00;;;;;;;;;;5054546;28;20021;-71
2022/11/01 05:16:06;;;;;;;17.50;11.02;;;;;;;;;;5053898;28;20025;-71
2022/11/01 05:18:32;;;;;;;11.13;8.15;;;;;;;;;;5038453;28;20464;-71
2022/11/01 05:20:58;;;;;;;15.65;8.65;;;;;;;;;;5054019;28;20464;-71
2022/11/01 05:23:24;;;;;;;13.77;8.68;;;;;;;;;;5053822;28;20028;-70
2022/11/01 05:25:50;;;;;;;11.73;8.13;;;;;;;;;;5053807;28;20040;-71
2022/11/01 05:28:16;;;;;;;15.00;8.45;;;;;;;;;;5053851;28;20025;-71
2022/11/01 05:30:42;;;;;;;12.43;8.02;;;;;;;;;;5053736;28;20021;-71
2022/11/01 05:33:10;;;;;;;10.60;7.95;;;;;;;;;;5053890;28;20021;-71
2022/11/01 05:35:36;;;;;;;17.60;10.57;;;;;;;;;;5053631;28;20039;-71
2022/11/01 05:38:03;;;;;;;13.93;8.43;;;;;;;;;;5053427;28;20059;-71
2022/11/01 05:40:30;;;;;;;15.90;8.77;;;;;;;;;;5053544;28;20021;-71
2022/11/01 05:42:56;;;;;;;24.38;10.35;;;;;;;;;;5053253;28;20057;-72
2022/11/01 05:45:22;;;;;;;12.05;8.38;;;;;;;;;;5053485;28;20041;-70
2022/11/01 05:47:48;;;;;;;13.90;8.57;;;;;;;;;;5053431;28;20017;-71
2022/11/01 05:50:15;;;;;;;17.80;9.63;;;;;;;;;;5053492;28;20017;-71
2022/11/01 05:52:41;;;;;;;16.40;10.90;;;;;;;;;;5053497;28;20049;-71
2022/11/01 05:55:08;;;;;;;18.25;11.43;;;;;;;;;;5053425;28;20040;-71
2022/11/01 05:57:34;;;;;;;19.83;11.75;;;;;;;;;;5052967;28;20052;-71
2022/11/01 06:00:00;;;;;;;20.30;12.45;;;;;;;;;;5053241;28;20025;-71
2022/11/01 06:02:26;;;;;;;17.58;12.13;;;;;;;;;;5053041;28;20029;-71
2022/11/01 06:04:52;;;;;;;14.15;9.82;;;;;;;;;;5053412;28;20043;-71
2022/11/01 06:07:19;;;;;;;15.50;9.75;;;;;;;;;;5053070;28;20472;-71
2022/11/01 06:09:45;;;;;;;13.45;9.48;;;;;;;;;;5053095;28;20021;-71
2022/11/01 06:12:11;;;;;;;18.67;11.10;;;;;;;;;;5052696;28;20028;-71
2022/11/01 06:14:37;;;;;;;14.45;10.32;;;;;;;;;;5052934;28;20033;-71
2022/11/01 06:17:03;;;;;;;15.38;12.07;;;;;;;;;;5052588;28;20032;-71
2022/11/01 06:19:29;;;;;;;21.85;12.65;;;;;;;;;;5052784;28;20082;-71
2022/11/01 06:21:55;;;;;;;20.73;11.55;;;;;;;;;;5052638;28;20032;-71
2022/11/01 06:24:21;;;;;;;18.95;14.13;;;;;;;;;;5052731;28;20039;-71
2022/11/01 06:26:47;;;;;;;19.58;12.50;;;;;;;;;;5052721;28;20499;-71
2022/11/01 06:29:13;;;;;;;27.50;16.17;;;;;;;;;;5052704;28;20491;-71
2022/11/01 06:31:39;;;;;;;21.92;14.27;;;;;;;;;;5051654;28;20370;-71
2022/11/01 06:34:05;;;;;;;21.95;12.40;;;;;;;;;;5052630;28;20539;-71
2022/11/01 06:36:31;;;;;;;17.58;9.98;;;;;;;;;;5052487;28;20029;-71
2022/11/01 06:38:57;;;;;;;23.10;10.40;;;;;;;;;;5052469;28;20021;-72
2022/11/01 06:41:23;;;;;;;18.45;11.02;;;;;;;;;;5052491;28;20471;-71
2022/11/01 06:43:49;;;;;;;17.67;9.63;;;;;;;;;;5052155;28;20053;-71
2022/11/01 06:46:15;;;;;;;16.95;11.23;;;;;;;;;;5052460;28;20017;-72
2022/11/01 06:48:41;;;;;;;15.98;10.27;;;;;;;;;;5052442;28;20479;-72
2022/11/01 06:51:07;;;;;;;21.90;12.10;;;;;;;;;;5052331;28;20031;-71
2022/11/01 06:53:33;;;;;;;20.73;11.30;;;;;;;;;;5052474;28;20052;-71
2022/11/01 06:56:00;;;;;;;20.75;13.45;;;;;;;;;;5052230;28;20060;-71
2022/11/01 06:58:26;;;;;;;22.65;15.05;;;;;;;;;;5052350;28;20021;-71
2022/11/01 07:00:52;;;;;;;20.10;12.35;;;;;;;;;;5052407;28;20108;-71
2022/11/01 07:03:18;;;;;;;20.08;11.30;;;;;;;;;;5052061;28;20025;-72
2022/11/01 07:05:44;;;;;;;20.33;11.65;;;;;;;;;;5041459;28;20041;-71
2022/11/01 07:08:11;;;;;;;17.52;10.80;;;;;;;;;;5047270;28;20498;-71
2022/11/01 07:10:39;;;;;;;15.25;9.35;;;;;;;;;;5052169;28;20080;-71
2022/11/01 07:13:06;;;;;;;15.00;9.68;;;;;;;;;;5050737;28;20064;-71
2022/11/01 07:15:32;;;;;;;15.75;9.20;;;;;;;;;;5052215;28;20021;-71
2022/11/01 07:17:59;;;;;;;17.48;9.60;;;;;;;;;;5051984;28;20032;-71
2022/11/01 07:20:26;;;;;;;14.57;8.70;;;;;;;;;;5052132;28;20025;-72
2022/11/01 07:23:02;;;;;;;18.33;10.23;;;;;;;;;;5052777;28;20032;-71
2022/11/01 07:25:28;;;;;;;17.50;9.77;;;;;;;;;;5056100;28;20387;-71
2022/11/01 07:27:55;;;;;;;19.48;10.63;;;;;;;;;;5055977;28;20571;-72
2022/11/01 07:30:21;;;;;;;21.52;13.73;;;;;;;;;;5055851;28;20078;-72
2022/11/01 07:32:47;;;;;;;19.17;11.70;;;;;;;;;;5055955;28;20423;-71
2022/11/01 07:35:13;;;;;;;21.50;12.43;;;;;;;;;;5055944;28;20044;-71
2022/11/01 07:37:39;;;;;;;16.75;11.25;;;;;;;;;;5055613;28;20086;-72
2022/11/01 07:40:06;;;;;;;18.23;11.57;;;;;;;;;;5056331;28;20032;-72
2022/11/01 07:42:32;;;;;;;18.48;10.90;;;;;;;;;;5055316;28;20047;-71
2022/11/01 07:44:58;;;;;;;20.05;12.05;;;;;;;;;;5055697;28;20040;-71
2022/11/01 07:47:24;;;;;;;18.42;11.07;;;;;;;;;;5055404;28;20500;-70
2022/11/01 07:49:50;;;;;;;19.70;11.38;;;;;;;;;;5055566;28;20491;-71
2022/11/01 07:52:16;;;;;;;18.65;11.40;;;;;;;;;;5055511;28;20028;-71
2022/11/01 07:54:42;;;;;;;16.15;11.00;;;;;;;;;;5055352;28;20056;-71
2022/11/01 07:57:08;;;;;;;23.00;10.02;;;;;;;;;;5055450;28;20025;-71
2022/11/01 07:59:34;;;;;;;24.70;11.98;;;;;;;;;;5055644;28;20032;-71
2022/11/01 08:02:00;;;;;;;19.30;9.98;;;;;;;;;;5055216;28;20024;-71
2022/11/01 08:04:26;;;;;;;18.85;11.45;;;;;;;;;;5055366;28;20047;-71
2022/11/01 08:06:52;;;;;;;17.77;11.15;;;;;;;;;;5055348;28;20104;-71
2022/11/01 08:09:20;;;;;;;25.13;12.60;;;;;;;;;;5042902;28;20399;-71
2022/11/01 08:11:46;;;;;;;23.35;13.15;;;;;;;;;;5051209;28;20100;-71
2022/11/01 08:14:13;;;;;;;38.13;20.75;;;;;;;;;;5055313;28;20029;-71
2022/11/01 08:16:39;;;;;;;33.80;17.08;;;;;;;;;;5054923;28;20021;-71
2022/11/01 08:19:05;;;;;;;28.73;16.27;;;;;;;;;;5055103;28;20028;-71
2022/11/01 08:21:31;;;;;;;40.38;18.90;;;;;;;;;;5054985;28;20028;-71
2022/11/01 08:23:57;;;;;;;35.17;18.75;;;;;;;;;;5054398;28;20116;-71
2022/11/01 08:26:23;;;;;;;27.02;17.77;;;;;;;;;;5054379;28;20040;-70
2022/11/01 08:28:49;;;;;;;33.58;21.27;;;;;;;;;;5054645;28;20470;-70
2022/11/01 08:31:16;;;;;;;35.38;18.05;;;;;;;;;;5054764;28;20020;-70
2022/11/01 08:33:42;;;;;;;39.00;19.80;;;;;;;;;;5054467;28;20022;-70
2022/11/01 08:36:08;;;;;;;48.70;22.27;;;;;;;;;;5054675;28;20054;-70
2022/11/01 08:38:34;;;;;;;43.45;22.20;;;;;;;;;;5054553;28;20501;-70
2022/11/01 08:41:00;;;;;;;34.17;20.38;;;;;;;;;;5054585;28;20410;-71
2022/11/01 08:43:26;;;;;;;38.50;20.83;;;;;;;;;;5054174;28;20569;-74
2022/11/01 08:45:52;;;;;;;35.75;19.73;;;;;;;;;;5054662;28;20029;-71
2022/11/01 08:48:18;;;;;;;33.53;20.17;;;;;;;;;;5054340;28;20025;-70
2022/11/01 08:50:44;;;;;;;35.20;21.27;;;;;;;;;;5054812;28;20100;-70
2022/11/01 08:53:11;;;;;;;48.03;26.33;;;;;;;;;;5054094;28;20024;-70
2022/11/01 08:55:37;;;;;;;45.35;21.85;;;;;;;;;;5054861;28;20087;-70
2022/11/01 08:58:03;;;;;;;45.78;22.52;;;;;;;;;;5053966;28;20029;-71
2022/11/01 09:00:30;;;;;;;42.67;23.48;;;;;;;;;;5054376;28;20021;-70
2022/11/01 09:02:56;;;;;;;38.58;23.63;;;;;;;;;;5054031;28;20048;-70
2022/11/01 09:05:22;;;;;;;49.38;25.55;;;;;;;;;;5054115;28;20108;-70
2022/11/01 09:07:49;;;;;;;41.40;26.73;;;;;;;;;;5054081;28;20021;-70
2022/11/01 09:10:15;;;;;;;52.38;24.80;;;;;;;;;;5054010;28;20116;-70
2022/11/01 09:12:42;;;;;;;35.67;22.98;;;;;;;;;;5041866;28;20120;-73
2022/11/01 09:15:08;;;;;;;53.50;34.72;;;;;;;;;;5048542;28;20037;-70
2022/11/01 09:17:35;;;;;;;37.50;18.40;;;;;;;;;;5053886;28;20017;-70
2022/11/01 09:20:02;;;;;;;26.48;15.48;;;;;;;;;;5054211;28;20083;-70
2022/11/01 09:22:28;;;;;;;28.20;15.48;;;;;;;;;;5015687;28;20024;-71
2022/11/01 09:24:56;;;;;;;28.55;16.63;;;;;;;;;;5046012;28;20068;-70
2022/11/01 09:27:22;;;;;;;26.80;16.77;;;;;;;;;;5053513;28;20020;-73
2022/11/01 09:29:48;;;;;;;19.27;14.18;;;;;;;;;;5053736;28;20055;-71
2022/11/01 09:32:14;;;;;;;27.70;14.02;;;;;;;;;;5053537;28;20078;-71
2022/11/01 09:34:40;;;;;;;23.83;13.32;;;;;;;;;;5053673;28;20029;-71
2022/11/01 09:37:06;;;;;;;31.33;16.70;;;;;;;;;;5037988;28;20052;-70
2022/11/01 09:39:32;;;;;;;32.20;15.32;;;;;;;;;;5053424;28;20072;-73
2022/11/01 09:42:01;;;;;;;27.13;14.23;;;;;;;;;;5053047;28;20388;-73
2022/11/01 09:44:32;;;;;;;22.33;12.82;;;;;;;;;;5053303;28;20112;-72
2022/11/01 09:47:00;;;;;;;23.23;11.95;;;;;;;;;;5052779;28;20391;-71
2022/11/01 09:49:30;;;;;;;27.67;14.73;;;;;;;;;;5053426;28;20035;-73
2022/11/01 09:51:56;;;;;;;29.92;14.85;;;;;;;;;;5053283;28;20021;-73
2022/11/01 09:54:23;;;;;;;24.75;13.27;;;;;;;;;;5053207;28;20021;-73
2022/11/01 09:57:07;;;;;;;23.00;12.65;;;;;;;;;;5052938;28;20152;-73
2022/11/01 09:59:40;;;;;;;24.63;12.15;;;;;;;;;;5053362;28;20029;-73
2022/11/01 10:02:06;;;;;;;17.05;11.32;;;;;;;;;;5040026;28;20021;-73
2022/11/01 10:04:43;;;;;;;21.50;11.45;;;;;;;;;;5052902;28;20037;-74
2022/11/01 10:07:32;;;;;;;19.58;11.18;;;;;;;;;;5053221;28;20108;-73
2022/11/01 10:10:06;;;;;;;27.95;14.45;;;;;;;;;;4971788;28;20039;-73
2022/11/01 10:12:35;;;;;;;23.63;10.98;;;;;;;;;;4972343;28;20042;-73
2022/11/01 10:15:19;;;;;;;25.23;12.63;;;;;;;;;;4971917;28;20039;-74
2022/11/01 10:17:49;;;;;;;17.80;8.23;;;;;;;;;;4972444;28;20030;-74
2022/11/01 10:20:16;;;;;;;17.98;10.30;;;;;;;;;;4971923;28;20027;-73
2022/11/01 10:22:44;;;;;;;19.92;10.18;;;;;;;;;;4972277;28;20089;-74
2022/11/01 10:25:22;;;;;;;21.08;10.10;;;;;;;;;;4971700;28;20051;-74
2022/11/01 10:27:59;;;;;;;21.27;8.80;;;;;;;;;;4972102;28;20038;-74
2022/11/01 10:30:26;;;;;;;17.42;8.20;;;;;;;;;;4971813;28;20551;-74
2022/11/01 10:33:01;;;;;;;12.00;7.75;;;;;;;;;;4955577;28;20034;-72
2022/11/01 10:35:29;;;;;;;17.70;8.90;;;;;;;;;;4955600;28;20113;-72
2022/11/01 10:38:01;;;;;;;12.23;7.20;;;;;;;;;;4971818;28;20038;-72
2022/11/01 10:40:35;;;;;;;19.60;8.35;;;;;;;;;;4971644;28;20069;-71
2022/11/01 10:43:01;;;;;;;23.05;7.40;;;;;;;;;;4971289;28;20070;-72
2022/11/01 10:45:28;;;;;;;15.10;9.25;;;;;;;;;;4971794;28;20051;-72
2022/11/01 10:47:56;;;;;;;18.85;9.00;;;;;;;;;;5043465;28;20033;-72
2022/11/01 10:50:24;;;;;;;21.00;8.90;;;;;;;;;;5052381;28;20026;-73
2022/11/01 10:52:54;;;;;;;13.90;6.97;;;;;;;;;;5052284;28;20075;-72
2022/11/01 10:55:26;;;;;;;20.38;7.85;;;;;;;;;;5052343;28;20104;-72
2022/11/01 10:57:55;;;;;;;21.60;8.60;;;;;;;;;;5053082;28;20103;-72
2022/11/01 11:00:22;;;;;;;14.35;8.93;;;;;;;;;;5056708;28;20024;-72
2022/11/01 11:02:55;;;;;;;15.70;8.98;;;;;;;;;;5056309;28;20021;-72
2022/11/01 11:05:22;;;;;;;13.10;7.45;;;;;;;;;;5056259;28;20025;-73
2022/11/01 11:07:48;;;;;;;18.95;8.77;;;;;;;;;;5056138;28;20021;-72
2022/11/01 11:10:20;;;;;;;16.88;8.52;;;;;;;;;;5056279;28;20064;-72
2022/11/01 11:12:46;;;;;;;16.52;7.53;;;;;;;;;;5056187;28;20029;-73
2022/11/01 11:15:21;;;;;;;15.23;8.75;;;;;;;;;;5056241;28;20036;-72
2022/11/01 11:17:50;;;;;;;19.42;9.73;;;;;;;;;;5054505;28;20123;-72
2022/11/01 11:20:20;;;;;;;22.58;11.13;;;;;;;;;;5056023;28;20127;-72
2022/11/01 11:22:46;;;;;;;17.30;9.63;;;;;;;;;;5055918;28;20033;-72
2022/11/01 11:25:17;;;;;;;30.55;10.15;;;;;;;;;;5055901;28;20033;-73
2022/11/01 11:27:46;;;;;;;20.00;7.88;;;;;;;;;;5056102;28;20361;-73
2022/11/01 11:30:13;;;;;;;19.92;8.77;;;;;;;;;;5055841;28;20021;-73
2022/11/01 11:32:47;;;;;;;12.88;7.07;;;1101.50;819.20;;;;;;5056453;28;20024;-73
2022/11/01 11:35:13;;;;;;;17.77;7.80;;;1126.60;793.60;;;;;;5055640;28;20036;-72
2022/11/01 11:37:48;;;;;;;17.42;8.90;;;1126.60;793.60;;;;;;5055862;28;20013;-73
2022/11/01 11:40:41;;;;;;;16.75;8.07;;;1126.90;793.60;;;;;;5055839;28;20108;-73
2022/11/01 11:43:34;;;;;;;17.92;8.80;;;1126.90;793.60;;;;;;4994003;28;20074;-73
2022/11/01 11:46:12;;;;;;;26.13;10.45;;;1126.60;793.60;;;;;;4994113;28;20046;-73
2022/11/01 11:48:55;;;;;;;21.73;9.13;;;1101.50;793.60;;;;;;4994242;28;20045;-73
2022/11/01 11:51:22;;;;;;;76.85;38.85;;;;;;;;;;4994009;28;20449;-73
2022/11/01 11:54:03;;;;;;;22.20;12.00;;;1101.50;793.60;;;;;;4976845;28;20428;-73
2022/11/01 11:56:28;;;;;;;36.80;12.90;;;1101.70;793.60;;;;;;4994066;28;20089;-72
2022/11/01 11:58:55;;;;;;;27.92;10.88;;;1126.40;819.20;;;;;;4993928;28;20026;-73
2022/11/01 12:01:24;;;;;;;21.15;8.05;;;1126.60;793.60;;;;;;4993992;28;20054;-72
2022/11/01 12:04:15;;;;;;;25.45;8.77;;;1126.60;793.60;;;;;;4977466;28;20548;-73
2022/11/01 12:06:44;;;;;;;20.63;9.05;;;1101.60;768.00;;;;;;4993586;28;20501;-72
2022/11/01 12:09:28;;;;;;;15.93;11.35;;;;;;;;;;4993429;28;20095;-72
2022/11/01 12:11:54;;;;;;;23.20;15.93;;;1100.80;793.60;;;;;;4993710;28;20035;-73
2022/11/01 12:14:24;;;;;;;23.67;13.02;;;1101.10;768.00;;;;;;4993710;28;20034;-73
2022/11/01 12:16:49;;;;;;;;;;;1101.10;793.60;;;;;;4993982;28;20098;-73
2022/11/01 12:19:31;;;;;;;31.38;26.42;;;;;;;;;;5002174;28;19935;-73
2022/11/01 12:22:00;;;;;;;27.52;18.23;;;;;;;;;;5054941;28;20035;-72
2022/11/01 12:24:48;;;;;;;26.60;19.88;;;;;;;;;;5045306;28;20037;-72
2022/11/01 12:27:16;;;;;;;30.42;24.70;;;;;;;;;;5052219;28;20017;-72
2022/11/01 12:29:46;;;;;;;27.42;20.58;;;;;;;;;;5054847;28;20555;-73
2022/11/01 12:32:13;;;;;;;;;;;;;;;;;;5054978;28;20113;-72
2022/11/01 12:34:40;;;;;;;16.67;10.45;;;;;;;;;;5054839;28;19911;-72
2022/11/01 12:37:06;;;;;;;17.30;9.80;;;;;;;;;;5054497;28;20479;-72
2022/11/01 12:39:35;;;;;;;23.90;12.77;;;;;;;;;;5054676;28;20017;-74
2022/11/01 12:42:03;;;;;;;20.65;12.73;;;;;;;;;;5054292;28;20422;-72
2022/11/01 12:44:29;;;;;;;19.77;12.55;;;;;;;;;;5054384;28;20033;-72
2022/11/01 12:46:59;;;;;;;21.92;12.52;;;;;;;;;;5054848;28;20383;-72
2022/11/01 12:49:25;;;;;;;19.42;12.93;;;;;;;;;;5054641;28;20032;-72
2022/11/01 12:51:54;;;;;;;18.65;12.38;;;;;;;;;;5054315;28;20021;-72
2022/11/01 12:54:20;;;;;;;20.52;14.32;;;;;;;;;;5055106;28;20454;-72
2022/11/01 12:56:46;;;;;;;34.42;12.82;;;;;;;;;;5053910;28;20017;-73
2022/11/01 12:59:13;;;;;;;21.20;11.45;;;;;;;;;;5054419;28;20147;-73
2022/11/01 13:01:42;;;;;;;22.40;13.02;;;;;;;;;;5054141;28;20040;-72
2022/11/01 13:04:19;;;;;;;18.40;11.93;;;;;;;;;;5054160;28;20033;-72
2022/11/01 13:06:45;;;;;;;22.88;13.90;;;;;;;;;;5053888;28;20096;-74
2022/11/01 13:09:11;;;;;;;22.13;13.35;;;;;;;;;;5054284;28;20025;-74
2022/11/01 13:11:37;;;;;;;22.20;14.52;;;;;;;;;;5053849;28;20100;-74
2022/11/01 13:14:30;;;;;;;17.80;12.20;;;;;;;;;;5053969;28;20108;-74
2022/11/01 13:17:16;;;;;;;22.83;12.77;;;;;;;;;;5050494;28;20048;-74
2022/11/01 13:20:04;;;;;;;17.23;12.85;;;;;;;;;;5039989;28;20543;-74
2022/11/01 13:22:40;;;;;;;23.13;12.57;;;;;;;;;;5053328;28;20048;-73
2022/11/01 13:25:07;;;;;;;20.40;12.85;;;;;;;;;;5053733;28;20025;-73
2022/11/01 13:27:39;;;;;;;23.73;13.80;;;;;;;;;;5054020;28;20555;-74
2022/11/01 13:30:08;;;;;;;21.05;13.20;;;;;;;;;;5038280;28;20050;-73
2022/11/01 13:32:42;;;;;;;23.40;14.40;;;;;;;;;;5053311;28;20023;-74
2022/11/01 13:35:11;;;;;;;27.58;15.95;;;;;;;;;;5053596;28;20056;-73
2022/11/01 13:37:44;;;;;;;31.08;15.32;;;;;;;;;;5053485;28;20032;-74
2022/11/01 13:40:14;;;;;;;29.70;15.32;;;;;;;;;;5053461;28;20040;-74
2022/11/01 13:42:46;;;;;;;26.23;16.17;;;;;;;;;;5053519;28;20110;-73
2022/11/01 13:45:12;;;;;;;27.17;14.85;;;;;;;;;;5053354;28;20505;-73
2022/11/01 13:47:50;;;;;;;21.58;14.00;;;;;;;;;;5053082;28;20037;-74
2022/11/01 13:50:19;;;;;;;21.80;13.57;;;;;;;;;;5053623;28;20021;-73
2022/11/01 13:52:54;;;;;;;27.13;13.10;;;;;;;;;;5053170;28;20094;-74
2022/11/01 13:55:26;;;;;;;28.08;14.75;;;;;;;;;;5040653;28;20037;-74
2022/11/01 13:57:53;;;;;;;33.13;17.38;;;;;;;;;;5053195;28;20460;-74
2022/11/01 14:00:38;;;;;;;30.55;19.83;;;;;;;;;;5053424;28;20025;-73
2022/11/01 14:03:23;;;;;;;30.60;17.73;;;;;;;;;;5053020;28;20028;-74
2022/11/01 14:06:10;;;;;;;24.83;16.10;;;;;;;;;;5053068;28;20033;-74
2022/11/01 14:08:39;;;;;;;22.80;15.60;;;;;;;;;;4971851;28;20037;-74
2022/11/01 14:11:06;;;;;;;38.47;17.95;;;;;;;;;;4972460;28;20413;-73
2022/11/01 14:13:36;;;;;;;31.80;17.95;;;;;;;;;;4991258;28;20042;-74
2022/11/01 14:16:18;;;;;;;30.88;17.95;;;;;;;;;;4991644;28;20481;-74
2022/11/01 14:19:02;;;;;;;26.77;17.73;;;;;;;;;;4991464;28;20030;-73
2022/11/01 14:21:39;;;;;;;35.72;18.48;;;;;;;;;;4991340;28;20026;-73
2022/11/01 14:24:06;;;;;;;40.17;22.50;;;;;;;;;;4991219;28;20109;-73
2022/11/01 14:26:34;;;;;;;43.10;26.63;;;;;;;;;;4991248;28;20074;-74
2022/11/01 14:29:01;;;;;;;30.02;21.50;;;;;;;;;;4991335;28;20177;-74
2022/11/01 14:31:31;;;;;;;33.20;19.73;;;;;;;;;;4991086;28;20531;-73
2022/11/01 14:34:00;;;;;;;41.85;20.63;;;;;;;;;;4991357;28;20132;-73